Station History

Weather Underground - logo

Station Historical Data
Daily Summary for September 24, 2017 Units:  English    Metric   Both
« Previous Day
Next Day »
Daily Weekly Monthly Yearly Custom
  High: Low: Average:
Temperature: TemperatureF °F 50.6 °F 64.7 °F
Dew Point: DewpointF °F 40.2 °F 46.3 °F
Humidity: Humidity % 24 % 57 %
Wind Speed: WindSpeedMPH mph 0.0 mph 0.8 mph
Wind Gust: WindSpeedGustMPH mph - -
Wind:- - West
Pressure: PressureIn in 29.85 in -
Precipitation: 0.00 in    
Historical Graphs
 
 
Tabular Data for September 24, 2017
Time Temperature Dew Point Pressure Wind Wind Speed Wind Gust Humidity Rainfall Rate (Hourly)
TemperatureF °F DewpointF °F PressureIn in Calm     Humidity % HourlyPrecipIn in
00:00 56.1 °F 48.6 °F 29.87 in Calm     76 % 0.00 in
00:05 56.1 °F 48.3 °F 29.87 in Calm     75 % 0.00 in
00:10 56.0 °F 48.2 °F 29.87 in Calm     75 % 0.00 in
00:15 55.7 °F 47.9 °F 29.87 in Calm     75 % 0.00 in
00:16 55.7 °F 47.9 °F 29.87 in Calm     75 % 0.00 in
00:21 55.5 °F 48.1 °F 29.87 in Calm     76 % 0.00 in
00:26 55.5 °F 48.1 °F 29.87 in Calm     76 % 0.00 in
00:31 55.5 °F 48.4 °F 29.87 in Calm     77 % 0.00 in
00:36 55.4 °F 48.3 °F 29.87 in Calm     77 % 0.00 in
00:41 55.5 °F 47.7 °F 29.87 in Calm     75 % 0.00 in
00:46 55.8 °F 48.0 °F 29.87 in Calm     75 % 0.00 in
00:51 55.8 °F 48.0 °F 29.88 in Calm     75 % 0.00 in
00:56 55.7 °F 48.9 °F 29.88 in Calm     78 % 0.00 in
01:01 55.5 °F 48.8 °F 29.88 in Calm     78 % 0.00 in
01:06 55.3 °F 48.9 °F 29.88 in Calm     79 % 0.00 in
01:11 55.1 °F 48.4 °F 29.88 in Calm     78 % 0.00 in
01:16 54.8 °F 48.4 °F 29.88 in Calm     79 % 0.00 in
01:21 54.9 °F 49.2 °F 29.88 in Calm     81 % 0.00 in
01:27 54.7 °F 49.0 °F 29.88 in Calm     81 % 0.00 in
01:32 54.5 °F 48.5 °F 29.88 in Calm     80 % 0.00 in
01:37 54.2 °F 49.1 °F 29.88 in Calm     83 % 0.00 in
01:42 54.2 °F 48.8 °F 29.88 in Calm     82 % 0.00 in
01:47 54.0 °F 48.3 °F 29.89 in Calm     81 % 0.00 in
01:50 53.7 °F 48.0 °F 29.89 in Calm   0.2 mph 81 % 0.00 in
01:56 53.3 °F 47.9 °F 29.89 in Calm     82 % 0.00 in
02:01 53.2 °F 47.8 °F 29.89 in Calm     82 % 0.00 in
02:06 52.9 °F 48.2 °F 29.88 in Calm   0.5 mph 84 % 0.00 in
02:11 52.6 °F 47.9 °F 29.89 in Calm     84 % 0.00 in
02:16 52.5 °F 48.1 °F 29.88 in Calm     85 % 0.00 in
02:21 52.3 °F 47.9 °F 29.88 in Calm     85 % 0.00 in
02:26 52.2 °F 47.8 °F 29.88 in Calm     85 % 0.00 in
02:31 52.2 °F 48.1 °F 29.89 in Calm     86 % 0.00 in
02:36 52.1 °F 48.0 °F 29.88 in Calm     86 % 0.00 in
02:41 51.9 °F 47.8 °F 29.88 in Calm     86 % 0.00 in
02:46 51.8 °F 47.4 °F 29.88 in Calm     85 % 0.00 in
02:51 51.8 °F 47.7 °F 29.88 in Calm     86 % 0.00 in
02:56 51.8 °F 47.7 °F 29.89 in Calm     86 % 0.00 in
03:01 51.8 °F 47.7 °F 29.88 in Calm     86 % 0.00 in
03:06 51.7 °F 47.6 °F 29.88 in Calm     86 % 0.00 in
03:11 51.7 °F 48.0 °F 29.88 in Calm     87 % 0.00 in
03:16 51.8 °F 48.1 °F 29.89 in Calm     87 % 0.00 in
03:21 51.9 °F 47.5 °F 29.88 in Calm     85 % 0.00 in
03:26 51.8 °F 47.4 °F 29.89 in Calm     85 % 0.00 in
03:31 51.7 °F 47.3 °F 29.89 in Calm     85 % 0.00 in
03:36 51.6 °F 46.9 °F 29.89 in Calm     84 % 0.00 in
03:41 51.5 °F 46.8 °F 29.89 in Calm     84 % 0.00 in
03:46 51.3 °F 46.6 °F 29.89 in Calm     84 % 0.00 in
03:51 51.0 °F 46.3 °F 29.89 in Calm     84 % 0.00 in
03:56 50.8 °F 46.1 °F 29.89 in Calm     84 % 0.00 in
04:01 50.7 °F 46.0 °F 29.89 in Calm     84 % 0.00 in
04:06 50.6 °F 45.9 °F 29.89 in Calm     84 % 0.00 in
04:11 50.8 °F 45.8 °F 29.89 in Calm     83 % 0.00 in
04:16 51.0 °F 45.7 °F 29.89 in Calm     82 % 0.00 in
04:21 51.0 °F 46.0 °F 29.89 in Calm     83 % 0.00 in
04:26 51.0 °F 46.0 °F 29.89 in Calm     83 % 0.00 in
04:31 51.1 °F 45.8 °F 29.89 in Calm     82 % 0.00 in
04:36 51.1 °F 46.1 °F 29.89 in Calm     83 % 0.00 in
04:41 51.2 °F 45.6 °F 29.89 in Calm     81 % 0.00 in
04:46 51.3 °F 45.7 °F 29.89 in Calm     81 % 0.00 in
04:51 51.3 °F 45.7 °F 29.89 in Calm     81 % 0.00 in
04:56 51.0 °F 45.4 °F 29.89 in Calm     81 % 0.00 in
05:01 50.8 °F 45.5 °F 29.89 in Calm     82 % 0.00 in
05:06 50.6 °F 45.3 °F 29.89 in Calm     82 % 0.00 in
05:11 50.7 °F 45.4 °F 29.89 in Calm     82 % 0.00 in
05:16 50.8 °F 45.2 °F 29.89 in Calm     81 % 0.00 in
05:21 50.9 °F 45.3 °F 29.89 in Calm     81 % 0.00 in
05:26 50.8 °F 45.5 °F 29.89 in Calm     82 % 0.00 in
05:31 50.8 °F 45.5 °F 29.89 in Calm     82 % 0.00 in
05:36 50.7 °F 45.7 °F 29.90 in Calm     83 % 0.00 in
05:41 50.6 °F 45.6 °F 29.90 in Calm     83 % 0.00 in
05:46 50.8 °F 45.8 °F 29.90 in Calm     83 % 0.00 in
05:51 51.3 °F 46.0 °F 29.90 in Calm     82 % 0.00 in
05:52 51.3 °F 46.0 °F 29.90 in Calm     82 % 0.00 in
05:57 51.5 °F 46.2 °F 29.90 in Calm     82 % 0.00 in
06:02 51.4 °F 46.1 °F 29.90 in Calm     82 % 0.00 in
06:07 51.4 °F 46.1 °F 29.91 in Calm     82 % 0.00 in
06:08 51.3 °F 46.3 °F 29.91 in Calm     83 % 0.00 in
06:12 51.2 °F 46.2 °F 29.91 in Calm     83 % 0.00 in
06:17 51.0 °F 46.3 °F 29.91 in Calm     84 % 0.00 in
06:22 50.9 °F 46.2 °F 29.91 in Calm     84 % 0.00 in
06:32 51.2 °F 46.5 °F 29.91 in Calm     84 % 0.00 in
06:37 51.2 °F 45.9 °F 29.91 in Calm     82 % 0.00 in
06:42 51.2 °F 46.8 °F 29.91 in Calm     85 % 0.00 in
06:47 51.2 °F 46.8 °F 29.91 in Calm     85 % 0.00 in
06:53 51.0 °F 47.0 °F 29.91 in Calm     86 % 0.00 in
06:58 51.0 °F 46.6 °F 29.91 in Calm     85 % 0.00 in
07:03 50.9 °F 46.9 °F 29.92 in Calm     86 % 0.00 in
07:08 50.9 °F 47.2 °F 29.92 in Calm     87 % 0.00 in
07:13 51.0 °F 47.6 °F 29.92 in Calm     88 % 0.00 in
07:18 51.2 °F 47.8 °F 29.92 in Calm     88 % 0.00 in
07:23 51.4 °F 47.4 °F 29.92 in Calm     86 % 0.00 in
07:28 51.7 °F 48.0 °F 29.92 in Calm     87 % 0.00 in
07:33 52.0 °F 47.9 °F 29.92 in Calm     86 % 0.00 in
07:38 52.2 °F 47.8 °F 29.92 in Calm     85 % 0.00 in
07:43 52.8 °F 46.8 °F 29.92 in Calm     80 % 0.00 in
07:48 53.8 °F 48.4 °F 29.92 in Calm     82 % 0.00 in
07:53 54.6 °F 49.2 °F 29.93 in Calm     82 % 0.00 in
07:58 55.0 °F 49.6 °F 29.93 in Calm     82 % 0.00 in
08:03 55.7 °F 50.0 °F 29.93 in Calm     81 % 0.00 in
08:08 56.8 °F 50.7 °F 29.93 in Calm     80 % 0.00 in
08:09 56.9 °F 50.8 °F 29.93 in Calm     80 % 0.00 in
08:14 58.7 °F 51.5 °F 29.93 in Calm     77 % 0.00 in
08:19 60.9 °F 52.9 °F 29.93 in Calm     75 % 0.00 in
08:24 61.9 °F 52.4 °F 29.93 in Calm     71 % 0.00 in
08:29 62.1 °F 51.8 °F 29.93 in Calm     69 % 0.00 in
08:39 63.2 °F 50.4 °F 29.93 in Calm     63 % 0.00 in
08:44 63.6 °F 48.5 °F 29.94 in SW 1.2 mph 1.2 mph 58 % 0.00 in
08:49 64.2 °F 48.6 °F 29.94 in Calm     57 % 0.00 in
08:54 65.1 °F 50.0 °F 29.94 in Calm     58 % 0.00 in
08:59 65.7 °F 50.0 °F 29.94 in Calm     57 % 0.00 in
09:04 65.8 °F 48.7 °F 29.94 in Calm     54 % 0.00 in
09:09 66.0 °F 48.4 °F 29.94 in West 1.2 mph 1.2 mph 53 % 0.00 in
09:14 66.3 °F 48.7 °F 29.94 in North 1.2 mph   53 % 0.00 in
09:18 67.1 °F 47.8 °F 29.94 in SSE 1.0 mph 1.0 mph 50 % 0.00 in
09:23 68.1 °F 45.9 °F 29.94 in Calm     45 % 0.00 in
09:28 68.3 °F 45.5 °F 29.94 in NW 2.3 mph 2.3 mph 44 % 0.00 in
09:33 67.7 °F 45.0 °F 29.94 in NW 2.3 mph 2.3 mph 44 % 0.00 in
09:38 67.7 °F 46.2 °F 29.94 in WSW 1.2 mph 1.2 mph 46 % 0.00 in
09:43 68.5 °F 47.5 °F 29.94 in Calm     47 % 0.00 in
09:48 68.9 °F 46.7 °F 29.95 in NW 1.2 mph 1.2 mph 45 % 0.00 in
09:53 69.2 °F 46.9 °F 29.95 in SE 1.2 mph 1.2 mph 45 % 0.00 in
09:58 69.7 °F 46.8 °F 29.94 in NNW 1.2 mph 1.2 mph 44 % 0.00 in
10:03 70.0 °F 47.1 °F 29.94 in ESE 2.3 mph 2.3 mph 44 % 0.00 in
10:08 70.6 °F 45.1 °F 29.95 in SSW 2.3 mph 2.3 mph 40 % 0.00 in
10:13 71.1 °F 45.5 °F 29.95 in SE 1.2 mph 1.2 mph 40 % 0.00 in
10:18 71.4 °F 45.8 °F 29.95 in SSE 2.3 mph 2.3 mph 40 % 0.00 in
10:23 71.4 °F 45.1 °F 29.95 in ESE 2.3 mph 2.3 mph 39 % 0.00 in
10:28 71.3 °F 46.4 °F 29.95 in NW 1.2 mph 1.2 mph 41 % 0.00 in
10:33 71.6 °F 46.6 °F 29.95 in North 2.3 mph   41 % 0.00 in
10:38 72.2 °F 45.9 °F 29.95 in South 2.3 mph 2.3 mph 39 % 0.00 in
10:43 72.7 °F 44.2 °F 29.95 in SSW 3.5 mph 3.5 mph 36 % 0.00 in
10:48 73.1 °F 46.7 °F 29.95 in East 3.5 mph 3.5 mph 39 % 0.00 in
10:53 73.5 °F 45.6 °F 29.95 in SSE 4.6 mph 4.6 mph 37 % 0.00 in
10:58 73.8 °F 45.9 °F 29.94 in East 1.2 mph 1.2 mph 37 % 0.00 in
11:03 74.0 °F 46.1 °F 29.94 in SSE 1.2 mph 1.2 mph 37 % 0.00 in
11:08 74.2 °F 46.2 °F 29.94 in South 1.2 mph 1.2 mph 37 % 0.00 in
11:13 74.6 °F 47.3 °F 29.94 in SSE 3.0 mph 3.0 mph 38 % 0.00 in
11:18 75.0 °F 46.2 °F 29.94 in SE 2.3 mph 2.3 mph 36 % 0.00 in
11:23 75.3 °F 46.5 °F 29.94 in ENE 3.5 mph 3.5 mph 36 % 0.00 in
11:28 75.6 °F 46.0 °F 29.94 in SSE 2.3 mph   35 % 0.00 in
11:34 75.6 °F 45.2 °F 29.94 in WNW 3.5 mph 3.5 mph 34 % 0.00 in
11:39 75.4 °F 46.6 °F 29.94 in North 3.5 mph 3.5 mph 36 % 0.00 in
11:44 75.6 °F 46.0 °F 29.94 in NNW 2.3 mph 2.3 mph 35 % 0.00 in
11:49 75.7 °F 47.6 °F 29.93 in South 1.2 mph 1.2 mph 37 % 0.00 in
11:59 77.0 °F 46.5 °F 29.93 in West 2.0 mph 2.0 mph 34 % 0.00 in
12:04 76.6 °F 46.1 °F 29.93 in West 1.2 mph 1.2 mph 34 % 0.00 in
12:09 76.8 °F 47.1 °F 29.93 in NW 2.3 mph 2.3 mph 35 % 0.00 in
12:14 77.0 °F 48.0 °F 29.93 in West 2.3 mph 2.3 mph 36 % 0.00 in
12:19 77.6 °F 44.6 °F 29.92 in SE 1.2 mph   31 % 0.00 in
12:24 78.0 °F 42.2 °F 29.92 in NW 2.3 mph 2.3 mph 28 % 0.00 in
12:29 78.1 °F 45.0 °F 29.92 in North 1.2 mph 1.2 mph 31 % 0.00 in
12:34 78.1 °F 44.1 °F 29.92 in SSE 2.3 mph 2.3 mph 30 % 0.00 in
12:39 78.2 °F 44.2 °F 29.92 in WNW 1.2 mph 1.2 mph 30 % 0.00 in
12:44 77.8 °F 42.1 °F 29.92 in NW 2.3 mph 2.3 mph 28 % 0.00 in
12:49 77.7 °F 42.0 °F 29.92 in NW 3.5 mph 3.5 mph 28 % 0.00 in
12:54 77.5 °F 43.6 °F 29.92 in North 2.3 mph 2.3 mph 30 % 0.00 in
12:59 78.2 °F 45.1 °F 29.92 in West 2.3 mph 2.3 mph 31 % 0.00 in
13:09 79.3 °F 44.3 °F 29.91 in WNW 1.2 mph   29 % 0.00 in
13:14 79.3 °F 43.4 °F 29.91 in WNW 4.0 mph 4.0 mph 28 % 0.00 in
13:19 79.2 °F 43.3 °F 29.91 in NNW 1.2 mph 1.2 mph 28 % 0.00 in
13:24 79.6 °F 42.7 °F 29.90 in NW 3.5 mph 3.5 mph 27 % 0.00 in
13:29 79.3 °F 43.4 °F 29.90 in WNW 3.5 mph 3.5 mph 28 % 0.00 in
13:34 79.1 °F 43.2 °F 29.90 in WNW 2.3 mph 2.3 mph 28 % 0.00 in
13:39 79.1 °F 44.1 °F 29.90 in NW 3.0 mph 3.0 mph 29 % 0.00 in
13:44 79.5 °F 45.3 °F 29.90 in Calm     30 % 0.00 in
13:49 79.7 °F 42.8 °F 29.90 in WSW 1.2 mph 1.2 mph 27 % 0.00 in
13:54 79.8 °F 43.8 °F 29.90 in NW 2.3 mph 2.3 mph 28 % 0.00 in
13:59 80.0 °F 43.0 °F 29.89 in NNW 1.2 mph   27 % 0.00 in
14:04 79.7 °F 41.8 °F 29.89 in NNW 3.5 mph 3.5 mph 26 % 0.00 in
14:09 79.7 °F 41.8 °F 29.89 in SSW 1.2 mph   26 % 0.00 in
14:14 80.2 °F 43.2 °F 29.89 in NW 1.2 mph 1.2 mph 27 % 0.00 in
14:19 80.0 °F 42.0 °F 29.89 in NW 3.5 mph 3.5 mph 26 % 0.00 in
14:24 80.0 °F 42.0 °F 29.89 in NW 3.5 mph 3.5 mph 26 % 0.00 in
14:29 80.1 °F 42.1 °F 29.88 in WNW 1.2 mph 1.2 mph 26 % 0.00 in
14:34 80.4 °F 43.3 °F 29.88 in NW 3.5 mph 3.5 mph 27 % 0.00 in
14:39 80.6 °F 42.5 °F 29.88 in West 2.3 mph 2.3 mph 26 % 0.00 in
14:44 80.1 °F 42.1 °F 29.88 in WNW 1.2 mph 1.2 mph 26 % 0.00 in
14:49 80.1 °F 42.1 °F 29.88 in NW 3.5 mph 3.5 mph 26 % 0.00 in
14:54 80.2 °F 42.2 °F 29.88 in NNW 2.3 mph 2.3 mph 26 % 0.00 in
14:59 80.6 °F 41.5 °F 29.87 in NW 2.0 mph 2.0 mph 25 % 0.00 in
15:04 80.5 °F 43.4 °F 29.87 in NNW 3.5 mph 3.5 mph 27 % 0.00 in
15:09 80.3 °F 43.3 °F 29.87 in NW 3.5 mph 3.5 mph 27 % 0.00 in
15:14 80.3 °F 43.3 °F 29.87 in NW 2.3 mph 2.4 mph 27 % 0.00 in
15:19 80.5 °F 42.4 °F 29.87 in NW 1.0 mph 1.0 mph 26 % 0.00 in
15:24 80.3 °F 40.2 °F 29.87 in WNW 3.5 mph 3.5 mph 24 % 0.00 in
15:29 80.0 °F 42.0 °F 29.87 in NNW 1.2 mph 1.2 mph 26 % 0.00 in
15:34 80.4 °F 43.3 °F 29.87 in NNE 4.6 mph 4.6 mph 27 % 0.00 in
15:39 80.2 °F 42.2 °F 29.86 in NNE 3.5 mph 3.5 mph 26 % 0.00 in
15:44 80.3 °F 44.2 °F 29.86 in NNE 1.2 mph 1.2 mph 28 % 0.00 in
15:49 80.7 °F 43.6 °F 29.86 in NW 3.5 mph 3.5 mph 27 % 0.00 in
15:54 80.5 °F 43.4 °F 29.86 in NW 3.5 mph 3.5 mph 27 % 0.00 in
15:59 80.4 °F 42.4 °F 29.86 in NE 3.5 mph 3.5 mph 26 % 0.00 in
16:04 80.1 °F 41.1 °F 29.86 in WNW 4.6 mph 4.6 mph 25 % 0.00 in
16:10 80.2 °F 42.2 °F 29.86 in NW 1.2 mph 1.2 mph 26 % 0.00 in
16:14 80.2 °F 43.2 °F 29.86 in WNW 2.3 mph 2.3 mph 27 % 0.00 in
16:25 79.9 °F 40.9 °F 29.85 in NE 1.2 mph 1.2 mph 25 % 0.00 in
16:30 79.5 °F 41.6 °F 29.85 in NNW 3.5 mph 3.5 mph 26 % 0.00 in
16:35 79.5 °F 42.6 °F 29.85 in WNW 3.5 mph 3.5 mph 27 % 0.00 in
16:40 79.4 °F 41.5 °F 29.85 in WNW 3.5 mph 3.5 mph 26 % 0.00 in
16:44 79.6 °F 41.7 °F 29.86 in NW 3.0 mph 3.0 mph 26 % 0.00 in
16:49 79.7 °F 42.8 °F 29.85 in WNW 3.0 mph 3.0 mph 27 % 0.00 in
16:54 79.7 °F 42.8 °F 29.85 in NW 3.5 mph 3.5 mph 27 % 0.00 in
17:05 79.6 °F 42.7 °F 29.85 in NW 2.3 mph 2.3 mph 27 % 0.00 in
17:10 79.6 °F 41.7 °F 29.85 in NW 3.5 mph 3.5 mph 26 % 0.00 in
17:15 79.3 °F 42.4 °F 29.85 in WNW 3.5 mph 3.5 mph 27 % 0.00 in
17:20 78.9 °F 42.1 °F 29.85 in NW 2.3 mph 2.3 mph 27 % 0.00 in
17:25 78.5 °F 41.7 °F 29.85 in WNW 2.3 mph 2.3 mph 27 % 0.00 in
17:30 78.3 °F 42.5 °F 29.85 in NW 1.2 mph 1.2 mph 28 % 0.00 in
17:35 78.2 °F 41.5 °F 29.85 in NW 2.3 mph 2.3 mph 27 % 0.00 in
17:40 78.0 °F 43.2 °F 29.85 in NW 2.3 mph 2.3 mph 29 % 0.00 in
17:45 77.7 °F 42.9 °F 29.85 in NW 1.2 mph 1.2 mph 29 % 0.00 in
17:50 77.4 °F 43.5 °F 29.85 in NNW 3.5 mph 3.5 mph 30 % 0.00 in
17:55 77.1 °F 43.3 °F 29.85 in WNW 1.2 mph 1.2 mph 30 % 0.00 in
18:00 76.7 °F 43.8 °F 29.85 in NW 1.2 mph 1.2 mph 31 % 0.00 in
18:05 76.4 °F 44.4 °F 29.85 in WNW 1.2 mph 1.2 mph 32 % 0.00 in
18:10 76.0 °F 44.0 °F 29.85 in WNW 1.2 mph 1.2 mph 32 % 0.00 in
18:15 75.6 °F 44.5 °F 29.85 in Calm     33 % 0.00 in
18:20 75.2 °F 45.7 °F 29.85 in Calm     35 % 0.00 in
18:25 74.8 °F 44.5 °F 29.85 in WNW 1.2 mph   34 % 0.00 in
18:30 74.4 °F 45.0 °F 29.85 in WNW 1.2 mph   35 % 0.00 in
18:35 74.0 °F 45.3 °F 29.85 in Calm     36 % 0.00 in
18:36 73.9 °F 45.3 °F 29.85 in Calm     36 % 0.00 in
18:41 73.4 °F 46.9 °F 29.85 in Calm     39 % 0.00 in
18:46 72.9 °F 45.8 °F 29.85 in WNW 1.2 mph   38 % 0.00 in
18:51 72.6 °F 45.5 °F 29.86 in Calm     38 % 0.00 in
18:56 72.4 °F 45.4 °F 29.85 in Calm     38 % 0.00 in
19:01 72.1 °F 45.8 °F 29.85 in Calm     39 % 0.00 in
19:06 71.6 °F 46.0 °F 29.85 in Calm     40 % 0.00 in
19:11 71.3 °F 47.6 °F 29.85 in Calm     43 % 0.00 in
19:16 70.9 °F 46.7 °F 29.85 in Calm     42 % 0.00 in
19:21 70.5 °F 48.1 °F 29.85 in Calm     45 % 0.00 in
19:26 70.1 °F 48.9 °F 29.85 in Calm     47 % 0.00 in
19:31 69.4 °F 48.9 °F 29.85 in Calm     48 % 0.00 in
19:36 68.9 °F 49.5 °F 29.85 in Calm     50 % 0.00 in
19:41 68.4 °F 48.5 °F 29.86 in Calm     49 % 0.00 in
19:46 67.9 °F 48.6 °F 29.86 in Calm     50 % 0.00 in
19:51 67.4 °F 49.7 °F 29.86 in Calm     53 % 0.00 in
19:56 67.0 °F 49.8 °F 29.86 in Calm     54 % 0.00 in
20:01 66.6 °F 50.4 °F 29.86 in Calm     56 % 0.00 in
20:13 65.9 °F 49.8 °F 29.86 in Calm     56 % 0.00 in
20:19 65.7 °F 49.6 °F 29.87 in Calm     56 % 0.00 in
20:21 65.7 °F 50.0 °F 29.87 in Calm     57 % 0.00 in
20:23 65.7 °F 49.6 °F 29.87 in Calm     56 % 0.00 in
20:25 65.8 °F 48.7 °F 29.87 in Calm     54 % 0.00 in
20:27 65.8 °F 49.2 °F 29.87 in Calm     55 % 0.00 in
20:32 66.0 °F 49.4 °F 29.87 in Calm     55 % 0.00 in
20:37 65.7 °F 50.5 °F 29.87 in Calm     58 % 0.00 in
20:42 64.9 °F 49.8 °F 29.87 in Calm     58 % 0.00 in
20:52 64.2 °F 49.1 °F 29.88 in Calm     58 % 0.00 in
20:57 63.9 °F 49.7 °F 29.88 in Calm     60 % 0.00 in
21:02 63.7 °F 50.0 °F 29.88 in Calm     61 % 0.00 in
21:07 63.4 °F 49.7 °F 29.88 in Calm     61 % 0.00 in
21:11 63.2 °F 49.5 °F 29.88 in Calm     61 % 0.00 in
21:16 62.8 °F 49.6 °F 29.88 in Calm     62 % 0.00 in
21:21 62.3 °F 49.1 °F 29.88 in Calm     62 % 0.00 in
21:26 62.2 °F 49.0 °F 29.88 in Calm     62 % 0.00 in
21:31 62.2 °F 49.4 °F 29.88 in Calm     63 % 0.00 in
21:36 62.2 °F 48.6 °F 29.88 in Calm     61 % 0.00 in
21:41 62.4 °F 48.3 °F 29.88 in Calm     60 % 0.00 in
21:46 62.8 °F 48.7 °F 29.89 in Calm     60 % 0.00 in
21:51 62.7 °F 49.5 °F 29.89 in Calm     62 % 0.00 in
21:56 62.8 °F 48.7 °F 29.89 in Calm     60 % 0.00 in
22:01 62.9 °F 48.3 °F 29.89 in Calm     59 % 0.00 in
22:06 63.0 °F 48.0 °F 29.89 in Calm     58 % 0.00 in
22:11 63.1 °F 49.0 °F 29.89 in Calm     60 % 0.00 in
22:16 62.8 °F 48.7 °F 29.89 in Calm     60 % 0.00 in
22:21 62.3 °F 49.5 °F 29.89 in Calm     63 % 0.00 in
22:26 61.9 °F 49.2 °F 29.89 in Calm     63 % 0.00 in
22:31 61.7 °F 49.8 °F 29.89 in Calm     65 % 0.00 in
22:36 61.4 °F 49.9 °F 29.90 in Calm     66 % 0.00 in
22:41 61.0 °F 49.6 °F 29.90 in Calm     66 % 0.00 in
22:46 60.2 °F 50.0 °F 29.90 in Calm     69 % 0.00 in
22:51 59.6 °F 49.0 °F 29.90 in Calm     68 % 0.00 in
22:56 59.6 °F 48.6 °F 29.90 in Calm     67 % 0.00 in
23:01 60.0 °F 48.2 °F 29.90 in Calm     65 % 0.00 in
23:06 60.3 °F 48.1 °F 29.90 in Calm     64 % 0.00 in
23:11 60.4 °F 47.7 °F 29.90 in Calm     63 % 0.00 in
23:16 60.4 °F 47.3 °F 29.90 in Calm     62 % 0.00 in
23:21 60.2 °F 48.0 °F 29.90 in Calm     64 % 0.00 in
23:26 59.8 °F 48.8 °F 29.90 in Calm     67 % 0.00 in
23:31 59.3 °F 49.1 °F 29.90 in Calm     69 % 0.00 in
23:36 59.1 °F 49.3 °F 29.90 in Calm     70 % 0.00 in
23:41 58.8 °F 49.0 °F 29.90 in Calm     70 % 0.00 in
23:46 58.7 °F 49.7 °F 29.90 in Calm     72 % 0.00 in
23:51 58.3 °F 48.6 °F 29.90 in ESE 1.2 mph   70 % 0.00 in
23:56 57.8 °F 48.8 °F 29.90 in Calm     72 % 0.00 in
Park Place, Exeter, Tulare County, California, USA
Compliments of Weather Underground - 2.75 mb